sensor_id;sensor_type;location;lat;lon;timestamp;pressure;altitude;pressure_sealevel;temperature;humidity
64023;BME280;50264;52.088;5.296;2023-02-04T00:01:37;103207.0;;;9.17;82.39
64023;BME280;50264;52.088;5.296;2023-02-04T00:04:50;103208.99999999999;;;9.1;82.5
64023;BME280;50264;52.088;5.296;2023-02-04T00:06:27;103209.99999999999;;;9.24;82.25
64023;BME280;50264;52.088;5.296;2023-02-04T00:08:04;103214.00000000001;;;9.23;82.0
64023;BME280;50264;52.088;5.296;2023-02-04T00:11:16;103216.00000000001;;;9.14;82.39
64023;BME280;50264;52.088;5.296;2023-02-04T00:12:52;103217.0;;;9.18;82.03
64023;BME280;50264;52.088;5.296;2023-02-04T00:14:28;103218.0;;;9.24;82.02
64023;BME280;50264;52.088;5.296;2023-02-04T00:17:41;103223.0;;;9.23;82.2
64023;BME280;50264;52.088;5.296;2023-02-04T00:19:17;103217.0;;;9.21;81.62
64023;BME280;50264;52.088;5.296;2023-02-04T00:20:54;103222.0;;;9.08;82.0
64023;BME280;50264;52.088;5.296;2023-02-04T00:22:30;103230.0;;;9.14;82.26
64023;BME280;50264;52.088;5.296;2023-02-04T00:25:42;103229.0;;;9.14;82.34
64023;BME280;50264;52.088;5.296;2023-02-04T00:27:18;103240.00000000001;;;9.11;82.26
64023;BME280;50264;52.088;5.296;2023-02-04T00:28:55;103239.00000000001;;;9.0;83.19
64023;BME280;50264;52.088;5.296;2023-02-04T00:32:08;103241.00000000001;;;9.0;83.46
64023;BME280;50264;52.088;5.296;2023-02-04T00:33:44;103233.99999999999;;;8.96;83.29
64023;BME280;50264;52.088;5.296;2023-02-04T00:35:20;103239.00000000001;;;8.96;83.57
64023;BME280;50264;52.088;5.296;2023-02-04T00:38:33;103236.99999999999;;;9.02;83.11
64023;BME280;50264;52.088;5.296;2023-02-04T00:40:10;103233.99999999999;;;8.99;83.39
64023;BME280;50264;52.088;5.296;2023-02-04T00:41:47;103241.00000000001;;;8.81;84.31
64023;BME280;50264;52.088;5.296;2023-02-04T00:44:59;103241.00000000001;;;8.77;84.41
64023;BME280;50264;52.088;5.296;2023-02-04T00:46:35;103248.0;;;8.74;84.73
64023;BME280;50264;52.088;5.296;2023-02-04T00:48:11;103255.0;;;8.56;85.48
64023;BME280;50264;52.088;5.296;2023-02-04T00:49:47;103258.0;;;8.64;85.49
64023;BME280;50264;52.088;5.296;2023-02-04T00:53:01;103255.0;;;8.58;86.05
64023;BME280;50264;52.088;5.296;2023-02-04T00:54:37;103256.0;;;8.5;85.68
64023;BME280;50264;52.088;5.296;2023-02-04T00:56:13;103257.0;;;8.5;86.54
64023;BME280;50264;52.088;5.296;2023-02-04T00:59:26;103255.0;;;8.44;87.14
64023;BME280;50264;52.088;5.296;2023-02-04T01:01:03;103261.99999999999;;;8.36;87.04
64023;BME280;50264;52.088;5.296;2023-02-04T01:02:40;103264.00000000001;;;8.39;87.0
64023;BME280;50264;52.088;5.296;2023-02-04T01:05:53;103258.99999999999;;;8.34;87.55
64023;BME280;50264;52.088;5.296;2023-02-04T01:07:29;103255.0;;;8.28;87.88
64023;BME280;50264;52.088;5.296;2023-02-04T01:09:05;103259.99999999999;;;8.25;88.02
64023;BME280;50264;52.088;5.296;2023-02-04T01:10:42;103263.00000000001;;;8.31;88.18
64023;BME280;50264;52.088;5.296;2023-02-04T01:13:54;103263.00000000001;;;8.25;88.3
64023;BME280;50264;52.088;5.296;2023-02-04T01:15:30;103268.0;;;8.32;88.28
64023;BME280;50264;52.088;5.296;2023-02-04T01:17:06;103272.0;;;8.22;88.46
64023;BME280;50264;52.088;5.296;2023-02-04T01:20:19;103275.0;;;8.34;88.36
64023;BME280;50264;52.088;5.296;2023-02-04T01:21:56;103275.0;;;8.26;88.75
64023;BME280;50264;52.088;5.296;2023-02-04T01:23:32;103283.99999999999;;;8.31;88.76
64023;BME280;50264;52.088;5.296;2023-02-04T01:26:44;103282.0;;;8.18;89.78
64023;BME280;50264;52.088;5.296;2023-02-04T01:28:20;103286.99999999999;;;8.22;89.52
64023;BME280;50264;52.088;5.296;2023-02-04T01:29:56;103291.00000000001;;;8.23;89.63
64023;BME280;50264;52.088;5.296;2023-02-04T01:31:33;103286.99999999999;;;8.17;89.86
64023;BME280;50264;52.088;5.296;2023-02-04T01:34:46;103293.0;;;8.22;90.07
64023;BME280;50264;52.088;5.296;2023-02-04T01:36:22;103289.00000000001;;;8.23;90.25
64023;BME280;50264;52.088;5.296;2023-02-04T01:37:58;103298.0;;;8.27;89.89
64023;BME280;50264;52.088;5.296;2023-02-04T01:41:13;103297.0;;;8.24;90.12
64023;BME280;50264;52.088;5.296;2023-02-04T01:42:49;103302.0;;;8.33;89.8
64023;BME280;50264;52.088;5.296;2023-02-04T01:44:27;103301.0;;;8.25;90.1
64023;BME280;50264;52.088;5.296;2023-02-04T01:47:41;103311.99999999999;;;8.19;90.41
64023;BME280;50264;52.088;5.296;2023-02-04T01:49:19;103316.00000000001;;;8.06;90.89
64023;BME280;50264;52.088;5.296;2023-02-04T01:51:00;103315.00000000001;;;8.05;91.87
64023;BME280;50264;52.088;5.296;2023-02-04T01:52:41;103313.00000000001;;;7.99;92.34
64023;BME280;50264;52.088;5.296;2023-02-04T01:55:57;103317.0;;;8.0;92.24
64023;BME280;50264;52.088;5.296;2023-02-04T01:57:35;103319.0;;;7.94;92.52
64023;BME280;50264;52.088;5.296;2023-02-04T01:59:12;103317.0;;;7.99;92.63
64023;BME280;50264;52.088;5.296;2023-02-04T02:00:50;103320.0;;;8.03;92.4
64023;BME280;50264;52.088;5.296;2023-02-04T02:04:26;103325.0;;;8.08;92.29
64023;BME280;50264;52.088;5.296;2023-02-04T02:06:07;103323.0;;;8.13;92.12
64023;BME280;50264;52.088;5.296;2023-02-04T02:07:45;103326.0;;;8.05;92.53
64023;BME280;50264;52.088;5.296;2023-02-04T02:09:21;103324.0;;;7.92;93.07
64023;BME280;50264;52.088;5.296;2023-02-04T02:12:34;103324.0;;;7.88;93.85
64023;BME280;50264;52.088;5.296;2023-02-04T02:14:11;103326.0;;;7.97;93.43
64023;BME280;50264;52.088;5.296;2023-02-04T02:15:48;103327.0;;;7.99;93.39
64023;BME280;50264;52.088;5.296;2023-02-04T02:19:01;103338.00000000001;;;8.03;93.4
64023;BME280;50264;52.088;5.296;2023-02-04T02:20:38;103336.99999999999;;;8.18;92.64
64023;BME280;50264;52.088;5.296;2023-02-04T02:22:23;103338.00000000001;;;8.11;92.62
64023;BME280;50264;52.088;5.296;2023-02-04T02:24:23;103332.0;;;8.05;93.2
64023;BME280;50264;52.088;5.296;2023-02-04T02:26:01;103338.00000000001;;;8.02;93.22
64023;BME280;50264;52.088;5.296;2023-02-04T02:29:14;103339.00000000001;;;8.02;93.47
64023;BME280;50264;52.088;5.296;2023-02-04T02:30:50;103342.0;;;8.03;92.99
64023;BME280;50264;52.088;5.296;2023-02-04T02:32:27;103334.99999999999;;;8.02;92.98
64023;BME280;50264;52.088;5.296;2023-02-04T02:35:43;103341.00000000001;;;8.02;93.28
64023;BME280;50264;52.088;5.296;2023-02-04T02:37:21;103333.0;;;8.09;93.56
64023;BME280;50264;52.088;5.296;2023-02-04T02:38:59;103340.00000000001;;;7.99;93.65
64023;BME280;50264;52.088;5.296;2023-02-04T02:40:35;103341.00000000001;;;7.92;94.06
64023;BME280;50264;52.088;5.296;2023-02-04T02:43:51;103338.00000000001;;;8.06;93.64
64023;BME280;50264;52.088;5.296;2023-02-04T02:45:30;103340.00000000001;;;8.1;93.12
64023;BME280;50264;52.088;5.296;2023-02-04T02:47:11;103343.0;;;8.24;92.58
64023;BME280;50264;52.088;5.296;2023-02-04T02:50:27;103343.0;;;8.14;92.71
64023;BME280;50264;52.088;5.296;2023-02-04T02:52:04;103341.00000000001;;;8.09;93.01
64023;BME280;50264;52.088;5.296;2023-02-04T02:53:40;103338.00000000001;;;8.0;92.97
64023;BME280;50264;52.088;5.296;2023-02-04T02:55:18;103342.0;;;7.99;93.18
64023;BME280;50264;52.088;5.296;2023-02-04T02:58:34;103343.0;;;7.98;93.36
64023;BME280;50264;52.088;5.296;2023-02-04T03:00:14;103348.0;;;7.99;93.58
64023;BME280;50264;52.088;5.296;2023-02-04T03:01:53;103350.0;;;8.06;93.62
64023;BME280;50264;52.088;5.296;2023-02-04T03:05:13;103347.0;;;8.01;93.42
64023;BME280;50264;52.088;5.296;2023-02-04T03:06:49;103350.0;;;8.0;93.58
64023;BME280;50264;52.088;5.296;2023-02-04T03:08:26;103348.0;;;7.97;93.92
64023;BME280;50264;52.088;5.296;2023-02-04T03:10:04;103355.0;;;7.94;93.96
64023;BME280;50264;52.088;5.296;2023-02-04T03:13:17;103357.0;;;7.88;94.25
64023;BME280;50264;52.088;5.296;2023-02-04T03:14:54;103358.0;;;7.83;94.37
64023;BME280;50264;52.088;5.296;2023-02-04T03:16:32;103356.0;;;7.81;94.29
64023;BME280;50264;52.088;5.296;2023-02-04T03:19:48;103354.0;;;7.75;94.8
64023;BME280;50264;52.088;5.296;2023-02-04T03:21:24;103348.0;;;7.81;94.47
64023;BME280;50264;52.088;5.296;2023-02-04T03:23:00;103347.0;;;7.78;94.6
64023;BME280;50264;52.088;5.296;2023-02-04T03:24:37;103353.0;;;7.76;94.46
64023;BME280;50264;52.088;5.296;2023-02-04T03:27:50;103358.0;;;7.7;94.49
64023;BME280;50264;52.088;5.296;2023-02-04T03:29:27;103352.0;;;7.62;93.62
64023;BME280;50264;52.088;5.296;2023-02-04T03:31:03;103349.0;;;7.49;93.76
64023;BME280;50264;52.088;5.296;2023-02-04T03:34:16;103353.0;;;7.43;94.63
64023;BME280;50264;52.088;5.296;2023-02-04T03:35:53;103358.0;;;7.46;95.15
64023;BME280;50264;52.088;5.296;2023-02-04T03:37:30;103358.99999999999;;;7.33;94.78
64023;BME280;50264;52.088;5.296;2023-02-04T03:40:43;103359.99999999999;;;7.36;94.46
64023;BME280;50264;52.088;5.296;2023-02-04T03:42:20;103359.99999999999;;;7.29;94.85
64023;BME280;50264;52.088;5.296;2023-02-04T03:43:56;103363.00000000001;;;7.25;95.23
64023;BME280;50264;52.088;5.296;2023-02-04T03:45:33;103358.99999999999;;;7.24;95.05
64023;BME280;50264;52.088;5.296;2023-02-04T03:48:45;103358.99999999999;;;7.24;94.94
64023;BME280;50264;52.088;5.296;2023-02-04T03:50:21;103367.0;;;7.23;94.93
64023;BME280;50264;52.088;5.296;2023-02-04T03:51:57;103370.0;;;7.15;94.78
64023;BME280;50264;52.088;5.296;2023-02-04T03:55:10;103367.0;;;7.14;95.09
64023;BME280;50264;52.088;5.296;2023-02-04T03:56:46;103368.0;;;6.94;94.86
64023;BME280;50264;52.088;5.296;2023-02-04T03:58:22;103369.0;;;6.83;95.3
64023;BME280;50264;52.088;5.296;2023-02-04T04:01:35;103373.0;;;6.82;95.82
64023;BME280;50264;52.088;5.296;2023-02-04T04:03:10;103375.0;;;6.85;96.26
64023;BME280;50264;52.088;5.296;2023-02-04T04:04:47;103374.0;;;6.81;95.89
64023;BME280;50264;52.088;5.296;2023-02-04T04:06:23;103367.0;;;6.7;96.16
64023;BME280;50264;52.088;5.296;2023-02-04T04:09:36;103376.0;;;6.6;95.9
64023;BME280;50264;52.088;5.296;2023-02-04T04:11:13;103375.0;;;6.68;95.17
64023;BME280;50264;52.088;5.296;2023-02-04T04:12:49;103369.0;;;6.71;95.0
64023;BME280;50264;52.088;5.296;2023-02-04T04:16:03;103368.0;;;6.65;94.2
64023;BME280;50264;52.088;5.296;2023-02-04T04:17:39;103377.0;;;6.45;95.26
64023;BME280;50264;52.088;5.296;2023-02-04T04:19:15;103382.0;;;6.41;95.5
64023;BME280;50264;52.088;5.296;2023-02-04T04:22:28;103383.99999999999;;;6.39;96.25
64023;BME280;50264;52.088;5.296;2023-02-04T04:24:04;103378.0;;;6.37;95.31
64023;BME280;50264;52.088;5.296;2023-02-04T04:25:41;103378.0;;;6.34;94.73
64023;BME280;50264;52.088;5.296;2023-02-04T04:27:17;103386.99999999999;;;6.2;95.46
64023;BME280;50264;52.088;5.296;2023-02-04T04:30:29;103386.99999999999;;;6.18;96.34
64023;BME280;50264;52.088;5.296;2023-02-04T04:32:06;103383.99999999999;;;6.11;95.87
64023;BME280;50264;52.088;5.296;2023-02-04T04:33:42;103392.0;;;6.04;95.13
64023;BME280;50264;52.088;5.296;2023-02-04T04:36:54;103395.0;;;6.0;95.36
64023;BME280;50264;52.088;5.296;2023-02-04T04:38:30;103390.00000000001;;;5.98;95.55
64023;BME280;50264;52.088;5.296;2023-02-04T04:40:10;103393.0;;;5.97;95.4
64023;BME280;50264;52.088;5.296;2023-02-04T04:43:23;103395.0;;;5.96;96.37
64023;BME280;50264;52.088;5.296;2023-02-04T04:44:59;103395.0;;;6.01;95.82
64023;BME280;50264;52.088;5.296;2023-02-04T04:46:35;103403.0;;;5.93;95.12
64023;BME280;50264;52.088;5.296;2023-02-04T04:48:11;103396.0;;;5.86;96.22
64023;BME280;50264;52.088;5.296;2023-02-04T04:51:24;103393.0;;;5.87;95.72
64023;BME280;50264;52.088;5.296;2023-02-04T04:53:00;103402.0;;;5.82;96.03
64023;BME280;50264;52.088;5.296;2023-02-04T04:54:36;103400.0;;;5.83;95.6
64023;BME280;50264;52.088;5.296;2023-02-04T04:57:48;103395.0;;;5.78;95.29
64023;BME280;50264;52.088;5.296;2023-02-04T04:59:24;103397.0;;;5.84;95.31
64023;BME280;50264;52.088;5.296;2023-02-04T05:01:01;103395.0;;;5.77;94.68
64023;BME280;50264;52.088;5.296;2023-02-04T05:04:13;103384.99999999999;;;5.91;94.72
64023;BME280;50264;52.088;5.296;2023-02-04T05:05:49;103389.00000000001;;;5.77;94.58
64023;BME280;50264;52.088;5.296;2023-02-04T05:07:25;103391.00000000001;;;5.73;95.62
64023;BME280;50264;52.088;5.296;2023-02-04T05:10:39;103390.00000000001;;;5.73;96.4
64023;BME280;50264;52.088;5.296;2023-02-04T05:12:16;103395.0;;;5.85;95.89
64023;BME280;50264;52.088;5.296;2023-02-04T05:13:53;103396.0;;;5.77;95.99
64023;BME280;50264;52.088;5.296;2023-02-04T05:15:29;103398.0;;;5.87;96.17
64023;BME280;50264;52.088;5.296;2023-02-04T05:18:43;103397.0;;;5.82;96.29
64023;BME280;50264;52.088;5.296;2023-02-04T05:20:19;103397.0;;;5.81;96.48
64023;BME280;50264;52.088;5.296;2023-02-04T05:21:56;103395.0;;;5.8;97.0
64023;BME280;50264;52.088;5.296;2023-02-04T05:25:10;103395.0;;;5.82;97.11
64023;BME280;50264;52.088;5.296;2023-02-04T05:26:46;103403.0;;;5.81;96.94
64023;BME280;50264;52.088;5.296;2023-02-04T05:28:22;103398.0;;;5.85;97.22
64023;BME280;50264;52.088;5.296;2023-02-04T05:31:35;103401.0;;;6.07;96.44
64023;BME280;50264;52.088;5.296;2023-02-04T05:33:11;103405.0;;;6.22;95.64
64023;BME280;50264;52.088;5.296;2023-02-04T05:34:47;103406.0;;;6.23;95.25
64023;BME280;50264;52.088;5.296;2023-02-04T05:36:23;103408.99999999999;;;6.28;95.22
64023;BME280;50264;52.088;5.296;2023-02-04T05:39:35;103405.0;;;6.41;94.8
64023;BME280;50264;52.088;5.296;2023-02-04T05:41:12;103401.0;;;6.46;94.65
64023;BME280;50264;52.088;5.296;2023-02-04T05:42:48;103401.0;;;6.33;94.78
64023;BME280;50264;52.088;5.296;2023-02-04T05:46:00;103404.0;;;6.27;95.43
64023;BME280;50264;52.088;5.296;2023-02-04T05:47:37;103407.0;;;6.23;95.49
64023;BME280;50264;52.088;5.296;2023-02-04T05:49:14;103405.0;;;6.27;94.92
64023;BME280;50264;52.088;5.296;2023-02-04T05:52:27;103408.99999999999;;;6.14;95.34
64023;BME280;50264;52.088;5.296;2023-02-04T05:54:03;103415.00000000001;;;6.02;95.83
64023;BME280;50264;52.088;5.296;2023-02-04T05:55:39;103423.0;;;6.11;96.0
64023;BME280;50264;52.088;5.296;2023-02-04T05:57:15;103426.0;;;6.26;95.71
64023;BME280;50264;52.088;5.296;2023-02-04T06:00:28;103431.0;;;6.49;94.7
64023;BME280;50264;52.088;5.296;2023-02-04T06:02:04;103433.99999999999;;;6.46;94.09
64023;BME280;50264;52.088;5.296;2023-02-04T06:03:40;103439.00000000001;;;6.4;94.87
64023;BME280;50264;52.088;5.296;2023-02-04T06:06:54;103441.00000000001;;;6.29;95.14
64023;BME280;50264;52.088;5.296;2023-02-04T06:08:31;103441.00000000001;;;6.13;96.01
64023;BME280;50264;52.088;5.296;2023-02-04T06:10:08;103444.0;;;6.08;96.61
64023;BME280;50264;52.088;5.296;2023-02-04T06:13:21;103447.0;;;6.18;95.88
64023;BME280;50264;52.088;5.296;2023-02-04T06:14:57;103448.0;;;6.06;96.27
64023;BME280;50264;52.088;5.296;2023-02-04T06:16:34;103452.0;;;6.07;96.34
64023;BME280;50264;52.088;5.296;2023-02-04T06:18:10;103458.0;;;6.08;96.76
64023;BME280;50264;52.088;5.296;2023-02-04T06:21:22;103456.0;;;6.07;96.25
64023;BME280;50264;52.088;5.296;2023-02-04T06:22:58;103456.0;;;6.1;96.22
64023;BME280;50264;52.088;5.296;2023-02-04T06:24:35;103466.00000000001;;;6.07;96.36
64023;BME280;50264;52.088;5.296;2023-02-04T06:27:49;103475.0;;;6.02;96.34
64023;BME280;50264;52.088;5.296;2023-02-04T06:29:25;103480.0;;;5.96;96.96
64023;BME280;50264;52.088;5.296;2023-02-04T06:31:02;103478.0;;;5.98;97.27
64023;BME280;50264;52.088;5.296;2023-02-04T06:34:15;103477.0;;;6.04;96.65
64023;BME280;50264;52.088;5.296;2023-02-04T06:35:52;103480.0;;;6.02;96.64
64023;BME280;50264;52.088;5.296;2023-02-04T06:37:29;103481.0;;;5.98;97.18
64023;BME280;50264;52.088;5.296;2023-02-04T06:39:05;103490.00000000001;;;5.98;97.03
64023;BME280;50264;52.088;5.296;2023-02-04T06:42:18;103492.0;;;6.03;97.36
64023;BME280;50264;52.088;5.296;2023-02-04T06:43:54;103493.0;;;6.03;97.68
64023;BME280;50264;52.088;5.296;2023-02-04T06:45:30;103496.0;;;6.08;97.86
64023;BME280;50264;52.088;5.296;2023-02-04T06:48:42;103498.0;;;6.1;96.82
64023;BME280;50264;52.088;5.296;2023-02-04T06:50:19;103501.0;;;6.19;97.09
64023;BME280;50264;52.088;5.296;2023-02-04T06:51:54;103506.0;;;6.24;96.76
64023;BME280;50264;52.088;5.296;2023-02-04T06:55:06;103509.99999999999;;;6.19;97.42
64023;BME280;50264;52.088;5.296;2023-02-04T06:56:42;103515.00000000001;;;6.16;97.3
64023;BME280;50264;52.088;5.296;2023-02-04T06:58:18;103515.00000000001;;;6.32;97.5
64023;BME280;50264;52.088;5.296;2023-02-04T07:01:30;103520.0;;;6.28;96.88
64023;BME280;50264;52.088;5.296;2023-02-04T07:03:06;103522.0;;;6.2;96.96
64023;BME280;50264;52.088;5.296;2023-02-04T07:04:42;103519.0;;;6.18;97.16
64023;BME280;50264;52.088;5.296;2023-02-04T07:06:18;103516.00000000001;;;6.18;97.38
64023;BME280;50264;52.088;5.296;2023-02-04T07:09:31;103517.0;;;6.23;97.36
64023;BME280;50264;52.088;5.296;2023-02-04T07:11:06;103518.0;;;6.38;96.75
64023;BME280;50264;52.088;5.296;2023-02-04T07:12:42;103521.0;;;6.3;96.8
64023;BME280;50264;52.088;5.296;2023-02-04T07:15:54;103526.0;;;6.29;97.02
64023;BME280;50264;52.088;5.296;2023-02-04T07:17:31;103519.0;;;6.32;97.04
64023;BME280;50264;52.088;5.296;2023-02-04T07:19:07;103525.0;;;6.45;96.54
64023;BME280;50264;52.088;5.296;2023-02-04T07:22:19;103525.0;;;6.53;96.32
64023;BME280;50264;52.088;5.296;2023-02-04T07:23:56;103528.0;;;6.48;95.96
64023;BME280;50264;52.088;5.296;2023-02-04T07:25:31;103528.0;;;6.47;95.96
64023;BME280;50264;52.088;5.296;2023-02-04T07:28:44;103525.0;;;6.45;96.62
64023;BME280;50264;52.088;5.296;2023-02-04T07:30:20;103521.0;;;6.5;95.77
64023;BME280;50264;52.088;5.296;2023-02-04T07:31:56;103524.0;;;6.55;95.81
64023;BME280;50264;52.088;5.296;2023-02-04T07:33:31;103528.0;;;6.6;95.86
64023;BME280;50264;52.088;5.296;2023-02-04T07:36:45;103530.0;;;6.55;95.83
64023;BME280;50264;52.088;5.296;2023-02-04T07:38:22;103538.00000000001;;;6.43;96.22
64023;BME280;50264;52.088;5.296;2023-02-04T07:39:58;103544.0;;;6.38;96.69
64023;BME280;50264;52.088;5.296;2023-02-04T07:43:10;103549.0;;;6.33;96.5
64023;BME280;50264;52.088;5.296;2023-02-04T07:44:46;103548.0;;;6.31;96.79
64023;BME280;50264;52.088;5.296;2023-02-04T07:46:22;103547.0;;;6.24;97.2
64023;BME280;50264;52.088;5.296;2023-02-04T07:49:33;103552.0;;;6.29;97.57
64023;BME280;50264;52.088;5.296;2023-02-04T07:51:09;103550.0;;;6.39;97.67
64023;BME280;50264;52.088;5.296;2023-02-04T07:52:45;103553.0;;;6.42;97.69
64023;BME280;50264;52.088;5.296;2023-02-04T07:55:56;103555.0;;;6.54;97.34
64023;BME280;50264;52.088;5.296;2023-02-04T07:57:33;103558.0;;;6.61;96.82
64023;BME280;50264;52.088;5.296;2023-02-04T07:59:09;103558.99999999999;;;6.59;97.24
64023;BME280;50264;52.088;5.296;2023-02-04T08:00:45;103559.99999999999;;;6.78;95.81
64023;BME280;50264;52.088;5.296;2023-02-04T08:03:57;103566.00000000001;;;6.75;96.28
64023;BME280;50264;52.088;5.296;2023-02-04T08:05:34;103567.0;;;6.86;96.5
64023;BME280;50264;52.088;5.296;2023-02-04T08:07:10;103570.0;;;7.05;95.75
64023;BME280;50264;52.088;5.296;2023-02-04T08:10:22;103575.0;;;7.15;95.37
64023;BME280;50264;52.088;5.296;2023-02-04T08:11:59;103575.0;;;7.25;95.03
64023;BME280;50264;52.088;5.296;2023-02-04T08:13:35;103578.0;;;7.45;94.28
64023;BME280;50264;52.088;5.296;2023-02-04T08:16:48;103580.0;;;7.43;94.15
64023;BME280;50264;52.088;5.296;2023-02-04T08:18:24;103588.00000000001;;;7.61;93.77
64023;BME280;50264;52.088;5.296;2023-02-04T08:20:00;103582.0;;;7.57;93.58
64023;BME280;50264;52.088;5.296;2023-02-04T08:21:36;103589.00000000001;;;7.44;93.99
64023;BME280;50264;52.088;5.296;2023-02-04T08:24:48;103595.0;;;7.41;94.34
64023;BME280;50264;52.088;5.296;2023-02-04T08:26:24;103591.00000000001;;;7.34;94.69
64023;BME280;50264;52.088;5.296;2023-02-04T08:28:01;103595.0;;;7.3;95.46
64023;BME280;50264;52.088;5.296;2023-02-04T08:31:14;103596.0;;;7.26;96.28
64023;BME280;50264;52.088;5.296;2023-02-04T08:32:50;103597.0;;;7.3;96.04
64023;BME280;50264;52.088;5.296;2023-02-04T08:34:26;103600.0;;;7.31;96.11
64023;BME280;50264;52.088;5.296;2023-02-04T08:37:39;103598.0;;;7.34;95.83
64023;BME280;50264;52.088;5.296;2023-02-04T08:39:15;103600.0;;;7.42;95.79
64023;BME280;50264;52.088;5.296;2023-02-04T08:40:52;103602.0;;;7.5;95.43
64023;BME280;50264;52.088;5.296;2023-02-04T08:44:05;103604.0;;;7.46;95.56
64023;BME280;50264;52.088;5.296;2023-02-04T08:45:41;103607.0;;;7.46;95.95
64023;BME280;50264;52.088;5.296;2023-02-04T08:47:17;103603.0;;;7.49;96.27
64023;BME280;50264;52.088;5.296;2023-02-04T08:48:54;103606.0;;;7.55;96.37
64023;BME280;50264;52.088;5.296;2023-02-04T08:52:07;103608.0;;;7.61;96.2
64023;BME280;50264;52.088;5.296;2023-02-04T08:53:44;103608.0;;;7.73;96.3
64023;BME280;50264;52.088;5.296;2023-02-04T08:55:20;103611.99999999999;;;7.73;96.25
64023;BME280;50264;52.088;5.296;2023-02-04T09:00:10;103617.0;;;7.89;96.2
64023;BME280;50264;52.088;5.296;2023-02-04T09:01:48;103622.0;;;7.92;96.2
64023;BME280;50264;52.088;5.296;2023-02-04T09:03:25;103620.0;;;7.98;96.27
64023;BME280;50264;52.088;5.296;2023-02-04T09:06:37;103617.0;;;8.01;96.15
64023;BME280;50264;52.088;5.296;2023-02-04T09:08:14;103620.0;;;8.06;95.87
64023;BME280;50264;52.088;5.296;2023-02-04T09:09:50;103620.0;;;8.1;95.95
64023;BME280;50264;52.088;5.296;2023-02-04T09:13:03;103622.0;;;8.2;95.66
64023;BME280;50264;52.088;5.296;2023-02-04T09:14:39;103622.0;;;8.23;95.93
64023;BME280;50264;52.088;5.296;2023-02-04T09:16:17;103618.0;;;8.33;95.59
64023;BME280;50264;52.088;5.296;2023-02-04T09:19:36;103619.0;;;8.42;95.63
64023;BME280;50264;52.088;5.296;2023-02-04T09:21:12;103619.0;;;8.49;95.04
64023;BME280;50264;52.088;5.296;2023-02-04T09:22:49;103622.0;;;8.56;94.62
64023;BME280;50264;52.088;5.296;2023-02-04T09:24:25;103626.0;;;8.61;94.04
64023;BME280;50264;52.088;5.296;2023-02-04T09:27:40;103625.0;;;8.64;93.41
64023;BME280;50264;52.088;5.296;2023-02-04T09:29:16;103622.0;;;8.66;93.25
64023;BME280;50264;52.088;5.296;2023-02-04T09:30:53;103627.0;;;8.72;92.74
64023;BME280;50264;52.088;5.296;2023-02-04T09:34:05;103631.0;;;8.82;92.67
64023;BME280;50264;52.088;5.296;2023-02-04T09:35:41;103627.0;;;8.86;92.41
64023;BME280;50264;52.088;5.296;2023-02-04T09:37:17;103624.0;;;8.9;91.82
64023;BME280;50264;52.088;5.296;2023-02-04T09:40:32;103627.0;;;8.89;91.81
64023;BME280;50264;52.088;5.296;2023-02-04T09:42:12;103627.0;;;9.06;91.64
64023;BME280;50264;52.088;5.296;2023-02-04T09:43:49;103631.0;;;9.08;91.13
64023;BME280;50264;52.088;5.296;2023-02-04T09:45:29;103628.0;;;9.13;91.23
64023;BME280;50264;52.088;5.296;2023-02-04T09:48:49;103631.0;;;9.27;89.45
64023;BME280;50264;52.088;5.296;2023-02-04T09:50:27;103631.0;;;9.34;89.98
64023;BME280;50264;52.088;5.296;2023-02-04T09:52:03;103636.99999999999;;;9.42;88.62
64023;BME280;50264;52.088;5.296;2023-02-04T09:53:45;103641.00000000001;;;9.36;86.47
64023;BME280;50264;52.088;5.296;2023-02-04T09:57:12;103641.00000000001;;;9.5;86.4
64023;BME280;50264;52.088;5.296;2023-02-04T09:58:51;103639.00000000001;;;9.55;84.67
64023;BME280;50264;52.088;5.296;2023-02-04T10:00:29;103643.0;;;9.64;84.17
64023;BME280;50264;52.088;5.296;2023-02-04T10:02:18;103644.0;;;9.8;84.12
64023;BME280;50264;52.088;5.296;2023-02-04T10:05:37;103641.00000000001;;;9.89;82.79
64023;BME280;50264;52.088;5.296;2023-02-04T10:07:16;103646.0;;;9.89;82.34
64023;BME280;50264;52.088;5.296;2023-02-04T10:08:54;103646.0;;;10.02;81.72
64023;BME280;50264;52.088;5.296;2023-02-04T10:10:32;103648.0;;;9.77;83.52
64023;BME280;50264;52.088;5.296;2023-02-04T10:13:46;103652.0;;;9.81;83.36
64023;BME280;50264;52.088;5.296;2023-02-04T10:15:23;103651.0;;;9.96;83.39
64023;BME280;50264;52.088;5.296;2023-02-04T10:17:00;103651.0;;;10.03;83.72
64023;BME280;50264;52.088;5.296;2023-02-04T10:20:17;103651.0;;;10.08;82.77
64023;BME280;50264;52.088;5.296;2023-02-04T10:21:54;103652.0;;;10.11;81.91
64023;BME280;50264;52.088;5.296;2023-02-04T10:23:31;103654.0;;;10.16;81.24
64023;BME280;50264;52.088;5.296;2023-02-04T10:25:12;103655.0;;;10.33;82.64
64023;BME280;50264;52.088;5.296;2023-02-04T10:28:32;103654.0;;;10.43;81.22
64023;BME280;50264;52.088;5.296;2023-02-04T10:30:17;103650.0;;;10.4;79.2
64023;BME280;50264;52.088;5.296;2023-02-04T10:31:55;103658.0;;;10.49;77.64
64023;BME280;50264;52.088;5.296;2023-02-04T10:33:32;103653.0;;;10.66;78.94
64023;BME280;50264;52.088;5.296;2023-02-04T10:36:52;103653.0;;;10.74;77.8
64023;BME280;50264;52.088;5.296;2023-02-04T10:38:29;103654.0;;;10.7;75.81
64023;BME280;50264;52.088;5.296;2023-02-04T10:40:24;103656.0;;;10.65;76.3
64023;BME280;50264;52.088;5.296;2023-02-04T10:42:02;103648.0;;;10.87;77.08
64023;BME280;50264;52.088;5.296;2023-02-04T10:45:22;103653.0;;;10.76;76.7
64023;BME280;50264;52.088;5.296;2023-02-04T10:46:59;103657.0;;;10.83;76.17
64023;BME280;50264;52.088;5.296;2023-02-04T10:48:39;103656.0;;;10.68;76.31
64023;BME280;50264;52.088;5.296;2023-02-04T10:50:18;103658.99999999999;;;10.6;76.97
64023;BME280;50264;52.088;5.296;2023-02-04T10:54:37;103655.0;;;10.55;77.19
64023;BME280;50264;52.088;5.296;2023-02-04T10:56:16;103654.0;;;10.56;76.58